sensor_id;sensor_type;location;lat;lon;timestamp;P1;durP1;ratioP1;P2;durP2;ratioP2
8825;SDS011;4449;50.872;4.714;2023-06-10T00:02:22;9.07;;;6.73;;
8825;SDS011;4449;50.872;4.714;2023-06-10T00:04:50;7.23;;;6.63;;
8825;SDS011;4449;50.872;4.714;2023-06-10T00:07:18;8.23;;;7.53;;
8825;SDS011;4449;50.872;4.714;2023-06-10T00:09:47;7.27;;;6.77;;
8825;SDS011;4449;50.872;4.714;2023-06-10T00:12:15;7.53;;;6.93;;
8825;SDS011;4449;50.872;4.714;2023-06-10T00:14:43;8.17;;;6.47;;
8825;SDS011;4449;50.872;4.714;2023-06-10T00:17:11;7.23;;;6.63;;
8825;SDS011;4449;50.872;4.714;2023-06-10T00:19:40;7.60;;;7.00;;
8825;SDS011;4449;50.872;4.714;2023-06-10T00:22:09;7.43;;;6.83;;
8825;SDS011;4449;50.872;4.714;2023-06-10T00:24:37;8.77;;;6.80;;
8825;SDS011;4449;50.872;4.714;2023-06-10T00:27:07;9.23;;;7.20;;
8825;SDS011;4449;50.872;4.714;2023-06-10T00:29:35;9.37;;;7.40;;
8825;SDS011;4449;50.872;4.714;2023-06-10T00:32:04;7.40;;;6.80;;
8825;SDS011;4449;50.872;4.714;2023-06-10T00:34:32;7.63;;;7.03;;
8825;SDS011;4449;50.872;4.714;2023-06-10T00:37:01;7.97;;;7.27;;
8825;SDS011;4449;50.872;4.714;2023-06-10T00:39:28;9.87;;;7.10;;
8825;SDS011;4449;50.872;4.714;2023-06-10T00:41:56;8.03;;;7.30;;
8825;SDS011;4449;50.872;4.714;2023-06-10T00:44:25;7.67;;;7.07;;
8825;SDS011;4449;50.872;4.714;2023-06-10T00:46:53;7.07;;;6.57;;
8825;SDS011;4449;50.872;4.714;2023-06-10T00:49:21;9.10;;;7.30;;
8825;SDS011;4449;50.872;4.714;2023-06-10T00:51:50;10.73;;;6.97;;
8825;SDS011;4449;50.872;4.714;2023-06-10T00:54:19;7.63;;;7.03;;
8825;SDS011;4449;50.872;4.714;2023-06-10T00:56:47;11.63;;;6.20;;
8825;SDS011;4449;50.872;4.714;2023-06-10T00:59:15;7.03;;;6.57;;
8825;SDS011;4449;50.872;4.714;2023-06-10T01:01:45;8.63;;;7.33;;
8825;SDS011;4449;50.872;4.714;2023-06-10T01:04:13;8.07;;;7.37;;
8825;SDS011;4449;50.872;4.714;2023-06-10T01:06:48;7.83;;;7.13;;
8825;SDS011;4449;50.872;4.714;2023-06-10T01:09:18;8.30;;;7.47;;
8825;SDS011;4449;50.872;4.714;2023-06-10T01:11:56;8.70;;;7.70;;
8825;SDS011;4449;50.872;4.714;2023-06-10T01:14:25;8.23;;;7.53;;
8825;SDS011;4449;50.872;4.714;2023-06-10T01:16:55;9.73;;;6.97;;
8825;SDS011;4449;50.872;4.714;2023-06-10T01:19:23;7.77;;;6.97;;
8825;SDS011;4449;50.872;4.714;2023-06-10T01:21:52;8.30;;;7.50;;
8825;SDS011;4449;50.872;4.714;2023-06-10T01:24:20;8.07;;;7.27;;
8825;SDS011;4449;50.872;4.714;2023-06-10T01:26:48;7.93;;;7.33;;
8825;SDS011;4449;50.872;4.714;2023-06-10T01:29:17;7.57;;;7.07;;
8825;SDS011;4449;50.872;4.714;2023-06-10T01:31:48;8.10;;;7.30;;
8825;SDS011;4449;50.872;4.714;2023-06-10T01:34:17;13.70;;;7.63;;
8825;SDS011;4449;50.872;4.714;2023-06-10T01:36:46;8.27;;;7.50;;
8825;SDS011;4449;50.872;4.714;2023-06-10T01:39:15;8.60;;;7.90;;
8825;SDS011;4449;50.872;4.714;2023-06-10T01:41:44;8.63;;;7.93;;
8825;SDS011;4449;50.872;4.714;2023-06-10T01:44:11;9.17;;;7.80;;
8825;SDS011;4449;50.872;4.714;2023-06-10T01:46:39;8.80;;;7.90;;
8825;SDS011;4449;50.872;4.714;2023-06-10T01:49:07;7.23;;;6.73;;
8825;SDS011;4449;50.872;4.714;2023-06-10T01:51:34;8.97;;;8.07;;
8825;SDS011;4449;50.872;4.714;2023-06-10T01:54:02;8.00;;;7.40;;
8825;SDS011;4449;50.872;4.714;2023-06-10T01:56:32;10.43;;;8.00;;
8825;SDS011;4449;50.872;4.714;2023-06-10T01:59:00;8.40;;;7.70;;
8825;SDS011;4449;50.872;4.714;2023-06-10T02:01:28;8.10;;;7.47;;
8825;SDS011;4449;50.872;4.714;2023-06-10T02:03:56;8.27;;;7.57;;
8825;SDS011;4449;50.872;4.714;2023-06-10T02:06:24;8.17;;;7.47;;
8825;SDS011;4449;50.872;4.714;2023-06-10T02:08:51;8.13;;;7.50;;
8825;SDS011;4449;50.872;4.714;2023-06-10T02:11:19;9.07;;;8.17;;
8825;SDS011;4449;50.872;4.714;2023-06-10T02:13:48;8.27;;;7.67;;
8825;SDS011;4449;50.872;4.714;2023-06-10T02:16:16;8.27;;;7.60;;
8825;SDS011;4449;50.872;4.714;2023-06-10T02:18:44;8.90;;;8.20;;
8825;SDS011;4449;50.872;4.714;2023-06-10T02:21:12;9.43;;;8.57;;
8825;SDS011;4449;50.872;4.714;2023-06-10T02:23:40;8.43;;;7.63;;
8825;SDS011;4449;50.872;4.714;2023-06-10T02:26:08;8.97;;;8.23;;
8825;SDS011;4449;50.872;4.714;2023-06-10T02:28:35;8.90;;;8.20;;
8825;SDS011;4449;50.872;4.714;2023-06-10T02:31:05;9.23;;;8.30;;
8825;SDS011;4449;50.872;4.714;2023-06-10T02:33:33;11.40;;;7.90;;
8825;SDS011;4449;50.872;4.714;2023-06-10T02:36:00;12.53;;;8.67;;
8825;SDS011;4449;50.872;4.714;2023-06-10T02:38:29;9.47;;;8.63;;
8825;SDS011;4449;50.872;4.714;2023-06-10T02:40:56;9.93;;;9.03;;
8825;SDS011;4449;50.872;4.714;2023-06-10T02:43:24;9.23;;;8.53;;
8825;SDS011;4449;50.872;4.714;2023-06-10T02:45:52;9.63;;;8.67;;
8825;SDS011;4449;50.872;4.714;2023-06-10T02:48:23;9.80;;;8.87;;
8825;SDS011;4449;50.872;4.714;2023-06-10T02:50:51;9.80;;;8.83;;
8825;SDS011;4449;50.872;4.714;2023-06-10T02:53:18;9.50;;;8.60;;
8825;SDS011;4449;50.872;4.714;2023-06-10T02:55:46;9.10;;;8.30;;
8825;SDS011;4449;50.872;4.714;2023-06-10T02:58:14;10.13;;;8.20;;
8825;SDS011;4449;50.872;4.714;2023-06-10T03:00:42;8.17;;;7.53;;
8825;SDS011;4449;50.872;4.714;2023-06-10T03:03:10;8.37;;;7.73;;
8825;SDS011;4449;50.872;4.714;2023-06-10T03:05:39;9.37;;;8.47;;
8825;SDS011;4449;50.872;4.714;2023-06-10T03:08:07;9.63;;;8.73;;
8825;SDS011;4449;50.872;4.714;2023-06-10T03:10:35;9.07;;;8.07;;
8825;SDS011;4449;50.872;4.714;2023-06-10T03:13:02;9.83;;;9.03;;
8825;SDS011;4449;50.872;4.714;2023-06-10T03:15:30;9.90;;;8.43;;
8825;SDS011;4449;50.872;4.714;2023-06-10T03:17:59;9.63;;;8.83;;
8825;SDS011;4449;50.872;4.714;2023-06-10T03:20:27;9.13;;;8.37;;
8825;SDS011;4449;50.872;4.714;2023-06-10T03:22:56;9.13;;;8.33;;
8825;SDS011;4449;50.872;4.714;2023-06-10T03:25:24;8.83;;;8.13;;
8825;SDS011;4449;50.872;4.714;2023-06-10T03:27:54;9.60;;;8.63;;
8825;SDS011;4449;50.872;4.714;2023-06-10T03:30:21;8.60;;;7.80;;
8825;SDS011;4449;50.872;4.714;2023-06-10T03:32:49;9.77;;;8.97;;
8825;SDS011;4449;50.872;4.714;2023-06-10T03:35:17;9.90;;;8.90;;
8825;SDS011;4449;50.872;4.714;2023-06-10T03:37:45;10.13;;;9.23;;
8825;SDS011;4449;50.872;4.714;2023-06-10T03:40:14;9.80;;;9.00;;
8825;SDS011;4449;50.872;4.714;2023-06-10T03:42:42;10.53;;;9.00;;
8825;SDS011;4449;50.872;4.714;2023-06-10T03:45:10;10.93;;;8.97;;
8825;SDS011;4449;50.872;4.714;2023-06-10T03:47:38;9.80;;;8.83;;
8825;SDS011;4449;50.872;4.714;2023-06-10T03:50:06;10.23;;;9.43;;
8825;SDS011;4449;50.872;4.714;2023-06-10T03:52:35;11.05;;;9.65;;
8825;SDS011;4449;50.872;4.714;2023-06-10T03:55:03;9.73;;;9.00;;
8825;SDS011;4449;50.872;4.714;2023-06-10T03:57:32;11.20;;;8.90;;
8825;SDS011;4449;50.872;4.714;2023-06-10T04:00:00;10.30;;;9.30;;
8825;SDS011;4449;50.872;4.714;2023-06-10T04:02:32;11.77;;;9.20;;
8825;SDS011;4449;50.872;4.714;2023-06-10T04:05:00;9.87;;;9.07;;
8825;SDS011;4449;50.872;4.714;2023-06-10T04:07:28;9.87;;;9.07;;
8825;SDS011;4449;50.872;4.714;2023-06-10T04:09:56;14.60;;;9.73;;
8825;SDS011;4449;50.872;4.714;2023-06-10T04:12:23;11.13;;;8.77;;
8825;SDS011;4449;50.872;4.714;2023-06-10T04:14:53;10.53;;;9.57;;
8825;SDS011;4449;50.872;4.714;2023-06-10T04:17:20;10.53;;;9.43;;
8825;SDS011;4449;50.872;4.714;2023-06-10T04:19:48;11.23;;;9.83;;
8825;SDS011;4449;50.872;4.714;2023-06-10T04:22:16;11.57;;;9.53;;
8825;SDS011;4449;50.872;4.714;2023-06-10T04:24:44;10.13;;;9.23;;
8825;SDS011;4449;50.872;4.714;2023-06-10T04:27:12;9.50;;;8.20;;
8825;SDS011;4449;50.872;4.714;2023-06-10T04:29:40;10.57;;;8.97;;
8825;SDS011;4449;50.872;4.714;2023-06-10T04:32:09;10.47;;;9.40;;
8825;SDS011;4449;50.872;4.714;2023-06-10T04:34:37;9.43;;;8.53;;
8825;SDS011;4449;50.872;4.714;2023-06-10T04:37:05;10.40;;;8.93;;
8825;SDS011;4449;50.872;4.714;2023-06-10T04:39:33;10.53;;;9.30;;
8825;SDS011;4449;50.872;4.714;2023-06-10T04:42:01;10.00;;;9.00;;
8825;SDS011;4449;50.872;4.714;2023-06-10T04:44:29;10.50;;;9.47;;
8825;SDS011;4449;50.872;4.714;2023-06-10T04:46:56;9.77;;;8.87;;
8825;SDS011;4449;50.872;4.714;2023-06-10T04:49:26;9.93;;;8.93;;
8825;SDS011;4449;50.872;4.714;2023-06-10T04:51:54;10.83;;;8.83;;
8825;SDS011;4449;50.872;4.714;2023-06-10T04:54:22;9.23;;;8.33;;
8825;SDS011;4449;50.872;4.714;2023-06-10T04:56:49;10.80;;;8.57;;
8825;SDS011;4449;50.872;4.714;2023-06-10T04:59:17;10.13;;;9.20;;
8825;SDS011;4449;50.872;4.714;2023-06-10T05:01:45;11.80;;;8.67;;
8825;SDS011;4449;50.872;4.714;2023-06-10T05:04:13;10.00;;;8.97;;
8825;SDS011;4449;50.872;4.714;2023-06-10T05:06:42;10.23;;;9.27;;
8825;SDS011;4449;50.872;4.714;2023-06-10T05:09:10;11.13;;;9.00;;
8825;SDS011;4449;50.872;4.714;2023-06-10T05:11:37;9.63;;;8.73;;
8825;SDS011;4449;50.872;4.714;2023-06-10T05:14:05;9.97;;;8.97;;
8825;SDS011;4449;50.872;4.714;2023-06-10T05:16:33;9.80;;;8.90;;
8825;SDS011;4449;50.872;4.714;2023-06-10T05:19:01;12.17;;;9.43;;
8825;SDS011;4449;50.872;4.714;2023-06-10T05:21:29;10.53;;;9.40;;
8825;SDS011;4449;50.872;4.714;2023-06-10T05:23:58;10.60;;;9.30;;
8825;SDS011;4449;50.872;4.714;2023-06-10T05:26:27;10.03;;;9.10;;
8825;SDS011;4449;50.872;4.714;2023-06-10T05:28:57;10.33;;;9.27;;
8825;SDS011;4449;50.872;4.714;2023-06-10T05:31:24;9.93;;;9.03;;
8825;SDS011;4449;50.872;4.714;2023-06-10T05:33:52;15.40;;;9.83;;
8825;SDS011;4449;50.872;4.714;2023-06-10T05:36:20;10.43;;;9.20;;
8825;SDS011;4449;50.872;4.714;2023-06-10T05:38:50;10.80;;;9.70;;
8825;SDS011;4449;50.872;4.714;2023-06-10T05:41:19;9.90;;;9.10;;
8825;SDS011;4449;50.872;4.714;2023-06-10T05:43:47;9.93;;;9.00;;
8825;SDS011;4449;50.872;4.714;2023-06-10T05:46:15;10.80;;;9.70;;
8825;SDS011;4449;50.872;4.714;2023-06-10T05:48:43;9.87;;;8.83;;
8825;SDS011;4449;50.872;4.714;2023-06-10T05:51:10;9.40;;;8.70;;
8825;SDS011;4449;50.872;4.714;2023-06-10T05:53:38;13.40;;;10.07;;
8825;SDS011;4449;50.872;4.714;2023-06-10T05:56:06;11.37;;;10.20;;
8825;SDS011;4449;50.872;4.714;2023-06-10T05:58:35;11.93;;;8.93;;
8825;SDS011;4449;50.872;4.714;2023-06-10T06:01:03;11.23;;;9.30;;
8825;SDS011;4449;50.872;4.714;2023-06-10T06:03:31;9.87;;;8.87;;
8825;SDS011;4449;50.872;4.714;2023-06-10T06:05:59;10.20;;;8.83;;
8825;SDS011;4449;50.872;4.714;2023-06-10T06:08:26;11.13;;;9.90;;
8825;SDS011;4449;50.872;4.714;2023-06-10T06:10:54;9.23;;;8.30;;
8825;SDS011;4449;50.872;4.714;2023-06-10T06:13:22;8.87;;;8.07;;
8825;SDS011;4449;50.872;4.714;2023-06-10T06:15:51;9.43;;;8.50;;
8825;SDS011;4449;50.872;4.714;2023-06-10T06:18:19;11.03;;;8.73;;
8825;SDS011;4449;50.872;4.714;2023-06-10T06:20:47;13.27;;;8.20;;
8825;SDS011;4449;50.872;4.714;2023-06-10T06:23:15;9.37;;;8.57;;
8825;SDS011;4449;50.872;4.714;2023-06-10T06:25:43;8.63;;;7.90;;
8825;SDS011;4449;50.872;4.714;2023-06-10T06:28:10;9.80;;;9.00;;
8825;SDS011;4449;50.872;4.714;2023-06-10T06:30:38;9.20;;;8.10;;
8825;SDS011;4449;50.872;4.714;2023-06-10T06:33:07;9.40;;;8.50;;
8825;SDS011;4449;50.872;4.714;2023-06-10T06:35:35;8.87;;;8.03;;
8825;SDS011;4449;50.872;4.714;2023-06-10T06:38:03;9.43;;;8.27;;
8825;SDS011;4449;50.872;4.714;2023-06-10T06:40:31;9.00;;;7.93;;
8825;SDS011;4449;50.872;4.714;2023-06-10T06:42:59;9.57;;;8.60;;
8825;SDS011;4449;50.872;4.714;2023-06-10T06:45:27;9.20;;;8.35;;
8825;SDS011;4449;50.872;4.714;2023-06-10T06:47:55;8.98;;;8.25;;
8825;SDS011;4449;50.872;4.714;2023-06-10T06:50:24;9.15;;;8.30;;
8825;SDS011;4449;50.872;4.714;2023-06-10T06:52:52;9.10;;;8.27;;
8825;SDS011;4449;50.872;4.714;2023-06-10T06:55:20;9.45;;;8.52;;
8825;SDS011;4449;50.872;4.714;2023-06-10T06:57:48;9.55;;;8.65;;
8825;SDS011;4449;50.872;4.714;2023-06-10T07:00:16;9.27;;;8.30;;
8825;SDS011;4449;50.872;4.714;2023-06-10T07:02:43;9.07;;;8.20;;
8825;SDS011;4449;50.872;4.714;2023-06-10T07:05:11;9.70;;;8.82;;
8825;SDS011;4449;50.872;4.714;2023-06-10T07:07:40;9.45;;;8.65;;
8825;SDS011;4449;50.872;4.714;2023-06-10T07:10:08;9.32;;;8.40;;
8825;SDS011;4449;50.872;4.714;2023-06-10T07:12:35;9.82;;;8.93;;
8825;SDS011;4449;50.872;4.714;2023-06-10T07:15:04;10.47;;;9.13;;
8825;SDS011;4449;50.872;4.714;2023-06-10T07:17:32;10.55;;;9.18;;
8825;SDS011;4449;50.872;4.714;2023-06-10T07:20:00;8.95;;;8.15;;
8825;SDS011;4449;50.872;4.714;2023-06-10T07:22:27;9.85;;;8.95;;
8825;SDS011;4449;50.872;4.714;2023-06-10T07:24:57;9.40;;;8.57;;
8825;SDS011;4449;50.872;4.714;2023-06-10T07:27:25;8.82;;;8.13;;
8825;SDS011;4449;50.872;4.714;2023-06-10T07:29:52;9.90;;;8.95;;
8825;SDS011;4449;50.872;4.714;2023-06-10T07:32:20;9.20;;;8.30;;
8825;SDS011;4449;50.872;4.714;2023-06-10T07:34:49;9.30;;;8.50;;
8825;SDS011;4449;50.872;4.714;2023-06-10T07:37:17;9.27;;;8.38;;
8825;SDS011;4449;50.872;4.714;2023-06-10T07:39:45;8.95;;;8.02;;
8825;SDS011;4449;50.872;4.714;2023-06-10T07:42:14;8.32;;;7.60;;
8825;SDS011;4449;50.872;4.714;2023-06-10T07:57:01;8.90;;;8.10;;
8825;SDS011;4449;50.872;4.714;2023-06-10T07:59:29;8.70;;;7.72;;
8825;SDS011;4449;50.872;4.714;2023-06-10T08:01:56;8.07;;;7.33;;
8825;SDS011;4449;50.872;4.714;2023-06-10T08:04:24;8.07;;;7.30;;
8825;SDS011;4449;50.872;4.714;2023-06-10T08:06:52;8.02;;;7.32;;
8825;SDS011;4449;50.872;4.714;2023-06-10T08:09:20;7.80;;;7.10;;
8825;SDS011;4449;50.872;4.714;2023-06-10T08:11:48;7.55;;;6.95;;
8825;SDS011;4449;50.872;4.714;2023-06-10T08:14:18;8.82;;;8.13;;
8825;SDS011;4449;50.872;4.714;2023-06-10T08:16:46;7.90;;;7.20;;
8825;SDS011;4449;50.872;4.714;2023-06-10T08:19:13;7.18;;;6.57;;
8825;SDS011;4449;50.872;4.714;2023-06-10T08:21:41;7.47;;;6.88;;
8825;SDS011;4449;50.872;4.714;2023-06-10T08:24:09;7.82;;;7.13;;
8825;SDS011;4449;50.872;4.714;2023-06-10T08:26:38;7.97;;;6.55;;
8825;SDS011;4449;50.872;4.714;2023-06-10T08:29:06;7.43;;;6.93;;
8825;SDS011;4449;50.872;4.714;2023-06-10T08:31:36;7.13;;;6.63;;
8825;SDS011;4449;50.872;4.714;2023-06-10T08:34:03;7.55;;;6.95;;
8825;SDS011;4449;50.872;4.714;2023-06-10T08:36:31;6.90;;;6.40;;
8825;SDS011;4449;50.872;4.714;2023-06-10T08:38:59;6.93;;;6.43;;
8825;SDS011;4449;50.872;4.714;2023-06-10T08:41:27;6.10;;;5.70;;
8825;SDS011;4449;50.872;4.714;2023-06-10T08:43:58;6.38;;;5.88;;
8825;SDS011;4449;50.872;4.714;2023-06-10T08:46:28;6.95;;;6.22;;
8825;SDS011;4449;50.872;4.714;2023-06-10T08:48:58;6.70;;;6.20;;
8825;SDS011;4449;50.872;4.714;2023-06-10T08:51:28;10.05;;;5.22;;
8825;SDS011;4449;50.872;4.714;2023-06-10T08:53:59;6.18;;;5.57;;
8825;SDS011;4449;50.872;4.714;2023-06-10T08:56:28;6.13;;;5.63;;
8825;SDS011;4449;50.872;4.714;2023-06-10T08:58:57;7.00;;;6.25;;
8825;SDS011;4449;50.872;4.714;2023-06-10T09:01:25;6.38;;;5.78;;
8825;SDS011;4449;50.872;4.714;2023-06-10T09:03:53;6.25;;;5.28;;
8825;SDS011;4449;50.872;4.714;2023-06-10T09:06:23;6.18;;;5.40;;
8825;SDS011;4449;50.872;4.714;2023-06-10T09:08:51;5.85;;;5.35;;
8825;SDS011;4449;50.872;4.714;2023-06-10T09:11:19;6.18;;;5.68;;
8825;SDS011;4449;50.872;4.714;2023-06-10T09:13:47;6.63;;;5.93;;
8825;SDS011;4449;50.872;4.714;2023-06-10T09:16:14;7.80;;;6.32;;
8825;SDS011;4449;50.872;4.714;2023-06-10T09:18:42;5.78;;;5.47;;
8825;SDS011;4449;50.872;4.714;2023-06-10T09:21:10;6.47;;;5.85;;
8825;SDS011;4449;50.872;4.714;2023-06-10T09:23:39;5.97;;;5.53;;
8825;SDS011;4449;50.872;4.714;2023-06-10T09:26:08;7.10;;;6.38;;
8825;SDS011;4449;50.872;4.714;2023-06-10T09:28:37;6.40;;;6.00;;
8825;SDS011;4449;50.872;4.714;2023-06-10T09:31:06;7.13;;;6.57;;
8825;SDS011;4449;50.872;4.714;2023-06-10T09:33:36;6.15;;;5.78;;
8825;SDS011;4449;50.872;4.714;2023-06-10T09:36:05;7.82;;;5.93;;
8825;SDS011;4449;50.872;4.714;2023-06-10T09:38:33;6.22;;;5.78;;
8825;SDS011;4449;50.872;4.714;2023-06-10T09:41:03;7.03;;;6.50;;
8825;SDS011;4449;50.872;4.714;2023-06-10T10:42:24;7.10;;;6.60;;
8825;SDS011;4449;50.872;4.714;2023-06-10T10:44:52;6.88;;;6.35;;
8825;SDS011;4449;50.872;4.714;2023-06-10T10:47:21;7.90;;;7.18;;
8825;SDS011;4449;50.872;4.714;2023-06-10T10:49:50;7.25;;;6.65;;
8825;SDS011;4449;50.872;4.714;2023-06-10T10:52:19;7.05;;;6.45;;
8825;SDS011;4449;50.872;4.714;2023-06-10T10:54:47;8.35;;;7.65;;
8825;SDS011;4449;50.872;4.714;2023-06-10T10:57:16;7.28;;;6.78;;
8825;SDS011;4449;50.872;4.714;2023-06-10T10:59:46;7.22;;;6.55;;
8825;SDS011;4449;50.872;4.714;2023-06-10T11:02:32;6.50;;;6.00;;
8825;SDS011;4449;50.872;4.714;2023-06-10T11:05:01;7.80;;;7.00;;
8825;SDS011;4449;50.872;4.714;2023-06-10T11:07:30;6.90;;;6.13;;
8825;SDS011;4449;50.872;4.714;2023-06-10T11:09:58;7.32;;;6.82;;
8825;SDS011;4449;50.872;4.714;2023-06-10T11:12:26;8.50;;;6.75;;
8825;SDS011;4449;50.872;4.714;2023-06-10T11:15:08;7.45;;;6.95;;
8825;SDS011;4449;50.872;4.714;2023-06-10T11:17:36;9.27;;;7.50;;
8825;SDS011;4449;50.872;4.714;2023-06-10T11:20:03;7.22;;;6.72;;
8825;SDS011;4449;50.872;4.714;2023-06-10T11:22:33;6.70;;;6.30;;
8825;SDS011;4449;50.872;4.714;2023-06-10T11:25:00;6.97;;;6.50;;
8825;SDS011;4449;50.872;4.714;2023-06-10T11:27:28;7.78;;;7.10;;
8825;SDS011;4449;50.872;4.714;2023-06-10T11:32:54;7.13;;;6.53;;
8825;SDS011;4449;50.872;4.714;2023-06-10T11:35:23;6.30;;;5.90;;
8825;SDS011;4449;50.872;4.714;2023-06-10T11:37:52;7.13;;;6.53;;
8825;SDS011;4449;50.872;4.714;2023-06-10T11:40:20;6.38;;;5.97;;
8825;SDS011;4449;50.872;4.714;2023-06-10T11:42:48;7.45;;;6.95;;
8825;SDS011;4449;50.872;4.714;2023-06-10T11:45:16;6.40;;;5.65;;
8825;SDS011;4449;50.872;4.714;2023-06-10T11:47:56;7.43;;;6.72;;
8825;SDS011;4449;50.872;4.714;2023-06-10T11:50:28;9.63;;;6.70;;
8825;SDS011;4449;50.872;4.714;2023-06-10T11:52:56;6.82;;;6.43;;
8825;SDS011;4449;50.872;4.714;2023-06-10T11:55:24;7.38;;;6.72;;
8825;SDS011;4449;50.872;4.714;2023-06-10T11:57:51;8.25;;;6.70;;
8825;SDS011;4449;50.872;4.714;2023-06-10T12:00:23;6.28;;;5.85;;
8825;SDS011;4449;50.872;4.714;2023-06-10T12:02:56;6.13;;;5.68;;
8825;SDS011;4449;50.872;4.714;2023-06-10T12:05:24;6.15;;;5.65;;
8825;SDS011;4449;50.872;4.714;2023-06-10T12:10:38;6.20;;;5.90;;
8825;SDS011;4449;50.872;4.714;2023-06-10T12:13:06;6.75;;;6.03;;
8825;SDS011;4449;50.872;4.714;2023-06-10T12:15:34;7.00;;;6.05;;
8825;SDS011;4449;50.872;4.714;2023-06-10T12:18:04;5.75;;;5.35;;
8825;SDS011;4449;50.872;4.714;2023-06-10T12:20:32;7.63;;;6.03;;
8825;SDS011;4449;50.872;4.714;2023-06-10T12:23:00;15.25;;;6.28;;
8825;SDS011;4449;50.872;4.714;2023-06-10T12:25:35;6.30;;;5.47;;
8825;SDS011;4449;50.872;4.714;2023-06-10T12:28:03;5.82;;;5.43;;
8825;SDS011;4449;50.872;4.714;2023-06-10T12:30:32;6.43;;;5.97;;
8825;SDS011;4449;50.872;4.714;2023-06-10T12:32:59;6.95;;;6.35;;
8825;SDS011;4449;50.872;4.714;2023-06-10T12:35:29;6.97;;;5.90;;
8825;SDS011;4449;50.872;4.714;2023-06-10T12:37:57;6.78;;;6.28;;
8825;SDS011;4449;50.872;4.714;2023-06-10T12:40:26;6.05;;;5.55;;
8825;SDS011;4449;50.872;4.714;2023-06-10T12:42:55;6.43;;;5.80;;
8825;SDS011;4449;50.872;4.714;2023-06-10T12:45:26;8.48;;;6.22;;
8825;SDS011;4449;50.872;4.714;2023-06-10T12:48:03;6.40;;;5.68;;
8825;SDS011;4449;50.872;4.714;2023-06-10T12:50:35;6.22;;;5.82;;
8825;SDS011;4449;50.872;4.714;2023-06-10T12:53:04;7.15;;;6.35;;
8825;SDS011;4449;50.872;4.714;2023-06-10T13:34:56;6.85;;;6.30;;
8825;SDS011;4449;50.872;4.714;2023-06-10T13:37:24;6.90;;;6.40;;
8825;SDS011;4449;50.872;4.714;2023-06-10T13:39:51;7.10;;;6.32;;
8825;SDS011;4449;50.872;4.714;2023-06-10T13:42:20;6.82;;;6.43;;
8825;SDS011;4449;50.872;4.714;2023-06-10T13:44:48;6.78;;;6.20;;
8825;SDS011;4449;50.872;4.714;2023-06-10T13:47:16;7.18;;;6.38;;
8825;SDS011;4449;50.872;4.714;2023-06-10T13:49:44;6.78;;;6.25;;
8825;SDS011;4449;50.872;4.714;2023-06-10T13:52:13;6.95;;;6.45;;
8825;SDS011;4449;50.872;4.714;2023-06-10T20:29:08;10.57;;;8.63;;
8825;SDS011;4449;50.872;4.714;2023-06-10T20:31:36;9.45;;;8.35;;
8825;SDS011;4449;50.872;4.714;2023-06-10T20:34:04;8.70;;;8.00;;
8825;SDS011;4449;50.872;4.714;2023-06-10T20:36:31;9.50;;;8.65;;
8825;SDS011;4449;50.872;4.714;2023-06-10T20:38:59;8.90;;;8.00;;
8825;SDS011;4449;50.872;4.714;2023-06-10T20:41:27;9.05;;;7.72;;
8825;SDS011;4449;50.872;4.714;2023-06-10T20:43:54;8.20;;;7.53;;
8825;SDS011;4449;50.872;4.714;2023-06-10T20:46:24;8.95;;;8.20;;
8825;SDS011;4449;50.872;4.714;2023-06-10T20:48:51;9.15;;;8.20;;
8825;SDS011;4449;50.872;4.714;2023-06-10T20:51:19;9.05;;;8.25;;
8825;SDS011;4449;50.872;4.714;2023-06-10T20:53:47;8.70;;;7.97;;
8825;SDS011;4449;50.872;4.714;2023-06-10T20:56:15;8.63;;;7.93;;
8825;SDS011;4449;50.872;4.714;2023-06-10T20:58:43;9.23;;;8.18;;
8825;SDS011;4449;50.872;4.714;2023-06-10T21:01:11;9.05;;;8.20;;
8825;SDS011;4449;50.872;4.714;2023-06-10T21:03:40;8.75;;;8.05;;
8825;SDS011;4449;50.872;4.714;2023-06-10T21:06:08;8.82;;;8.13;;
8825;SDS011;4449;50.872;4.714;2023-06-10T21:08:36;8.60;;;7.90;;
8825;SDS011;4449;50.872;4.714;2023-06-10T21:11:04;8.40;;;7.70;;
8825;SDS011;4449;50.872;4.714;2023-06-10T21:13:31;9.05;;;8.13;;
8825;SDS011;4449;50.872;4.714;2023-06-10T21:15:59;9.00;;;7.40;;
8825;SDS011;4449;50.872;4.714;2023-06-10T21:18:27;8.43;;;7.40;;
8825;SDS011;4449;50.872;4.714;2023-06-10T21:20:58;8.90;;;8.00;;
8825;SDS011;4449;50.872;4.714;2023-06-10T21:23:26;8.73;;;8.02;;
8825;SDS011;4449;50.872;4.714;2023-06-10T21:25:53;8.70;;;7.90;;
8825;SDS011;4449;50.872;4.714;2023-06-10T21:28:21;12.37;;;8.80;;
8825;SDS011;4449;50.872;4.714;2023-06-10T21:30:49;8.63;;;7.82;;
8825;SDS011;4449;50.872;4.714;2023-06-10T21:33:17;10.75;;;8.32;;
8825;SDS011;4449;50.872;4.714;2023-06-10T21:35:46;9.00;;;8.10;;
8825;SDS011;4449;50.872;4.714;2023-06-10T21:38:15;8.88;;;8.05;;
8825;SDS011;4449;50.872;4.714;2023-06-10T21:40:44;9.38;;;8.30;;
8825;SDS011;4449;50.872;4.714;2023-06-10T21:43:11;8.88;;;8.07;;
8825;SDS011;4449;50.872;4.714;2023-06-10T21:45:39;8.38;;;7.70;;
8825;SDS011;4449;50.872;4.714;2023-06-10T21:48:07;8.65;;;7.97;;
8825;SDS011;4449;50.872;4.714;2023-06-10T21:50:35;8.95;;;8.25;;
8825;SDS011;4449;50.872;4.714;2023-06-10T21:53:03;8.48;;;7.70;;
8825;SDS011;4449;50.872;4.714;2023-06-10T21:55:32;11.40;;;8.32;;
8825;SDS011;4449;50.872;4.714;2023-06-10T22:25:58;8.43;;;7.65;;
8825;SDS011;4449;50.872;4.714;2023-06-10T22:28:26;8.75;;;8.07;;
8825;SDS011;4449;50.872;4.714;2023-06-10T22:30:54;8.05;;;7.40;;
8825;SDS011;4449;50.872;4.714;2023-06-10T22:33:22;9.07;;;8.10;;
8825;SDS011;4449;50.872;4.714;2023-06-10T22:35:49;8.50;;;7.85;;
8825;SDS011;4449;50.872;4.714;2023-06-10T22:38:17;8.13;;;7.53;;
8825;SDS011;4449;50.872;4.714;2023-06-10T22:40:45;8.27;;;7.50;;
8825;SDS011;4449;50.872;4.714;2023-06-10T22:43:14;9.18;;;8.23;;
8825;SDS011;4449;50.872;4.714;2023-06-10T22:45:42;8.30;;;7.60;;
8825;SDS011;4449;50.872;4.714;2023-06-10T22:48:09;7.50;;;7.00;;
8825;SDS011;4449;50.872;4.714;2023-06-10T22:50:37;8.80;;;8.02;;
8825;SDS011;4449;50.872;4.714;2023-06-10T22:53:05;8.13;;;7.53;;
8825;SDS011;4449;50.872;4.714;2023-06-10T22:55:33;8.93;;;8.02;;
8825;SDS011;4449;50.872;4.714;2023-06-10T22:58:01;8.23;;;7.45;;
8825;SDS011;4449;50.872;4.714;2023-06-10T23:00:30;9.00;;;8.10;;
8825;SDS011;4449;50.872;4.714;2023-06-10T23:02:58;8.63;;;7.68;;
8825;SDS011;4449;50.872;4.714;2023-06-10T23:05:26;7.90;;;7.25;;
8825;SDS011;4449;50.872;4.714;2023-06-10T23:07:53;8.52;;;7.72;;
8825;SDS011;4449;50.872;4.714;2023-06-10T23:10:21;8.38;;;7.40;;
8825;SDS011;4449;50.872;4.714;2023-06-10T23:12:49;8.30;;;7.50;;
8825;SDS011;4449;50.872;4.714;2023-06-10T23:15:16;8.20;;;7.60;;
8825;SDS011;4449;50.872;4.714;2023-06-10T23:17:46;8.73;;;7.82;;
8825;SDS011;4449;50.872;4.714;2023-06-10T23:20:15;8.27;;;7.60;;
8825;SDS011;4449;50.872;4.714;2023-06-10T23:22:46;8.40;;;7.53;;
8825;SDS011;4449;50.872;4.714;2023-06-10T23:25:17;8.93;;;8.02;;
8825;SDS011;4449;50.872;4.714;2023-06-10T23:27:46;8.32;;;7.63;;
8825;SDS011;4449;50.872;4.714;2023-06-10T23:30:14;8.57;;;7.87;;
8825;SDS011;4449;50.872;4.714;2023-06-10T23:32:42;9.30;;;8.50;;
8825;SDS011;4449;50.872;4.714;2023-06-10T23:35:11;8.00;;;7.30;;
8825;SDS011;4449;50.872;4.714;2023-06-10T23:37:44;8.30;;;7.38;;
8825;SDS011;4449;50.872;4.714;2023-06-10T23:40:13;8.57;;;7.70;;
8825;SDS011;4449;50.872;4.714;2023-06-10T23:42:43;9.15;;;8.25;;
8825;SDS011;4449;50.872;4.714;2023-06-10T23:45:11;8.82;;;8.18;;
8825;SDS011;4449;50.872;4.714;2023-06-10T23:47:39;9.05;;;8.40;;
8825;SDS011;4449;50.872;4.714;2023-06-10T23:50:07;9.32;;;8.32;;
8825;SDS011;4449;50.872;4.714;2023-06-10T23:52:36;8.90;;;8.10;;
8825;SDS011;4449;50.872;4.714;2023-06-10T23:55:04;9.23;;;8.20;;
8825;SDS011;4449;50.872;4.714;2023-06-10T23:57:32;8.75;;;8.07;;
